Neenah, WI

6:08 PM CST on March 02, 2015 (GMT -0600)
Near Heckrodt Wetland Reserve | Change Station
CLOSE
Current Station
Personal Weather Station
Location: Menasha, WI
Elevation: 755 ft
Nearby Weather Stations
Active Advisory: Winter Weather Advisory

Elev 755 ft 44.21 °N, 88.43 °W | Updated 21 seconds ago

Partly Cloudy
Partly Cloudy
20.8 °F
Feels Like 21 °F
N
0.0
Wind Variable Wind from SW
Gusts 4.0 mph

Today
High -- | Low -- °F
--% Chance of Precip.
Yesterday
High -- | Low -- °F
Precip. -- in
6:29 AM 5:43 PM
Waxing Gibbous, 93% visible
Pressure 30.32 in
Visibility 10.0 miles
Clouds Scattered Clouds 10000 ft
Windchill 21 °F
Dew Point 13 °F
Humidity 72%
Rainfall 0.00 in
Snow Depth Not available.
UV 0 out of 12
Pollen .30 out of 12
Air Quality Not available.
Flu Activity Not available.
METAR KATW 022345Z 16006KT 10SM SCT100 M06/M12 A3032

More Conditions Fewer Conditions

Pressure 30.32 in
Visibility 10.0 miles
Clouds Scattered Clouds 10000 ft
Windchill 21 °F
Dew Point 13 °F
Humidity 72%
Rainfall 0.00 in
Snow Depth Not available.
UV 0 out of 12
Pollen .30 out of 12
Air Quality Not available.
Flu Activity Not available.
METAR KATW 022345Z 16006KT 10SM SCT100 M06/M12 A3032

More Conditions Fewer Conditions

10-Day Weather Forecast

Almanac

Astronomy

Mar. 02, 2015 Rise Set
Actual Time
Civil Twilight
Nautical Twilight
Astronomical Twilight
Moon
Length of Visible Light
Length of Day
Tomorrow will be .
, % of the Moon is Illuminated

Today's Extremes

State Highs State Lows

Community

WunderPhotos

Upload Photos

1,801,999 photos uploaded!

WunderBlogs® & News

Nearby

Air Quality

  Air Quality AQ Index Pollutant
Not available.

Snow Depth

Station Depth Elevation

Earthquake Activity

City Distance Mag. Time & Date
Minimum magnitude displayed is 2.5.

Coastal Water Temperatures

Place Temperature

Nearby Weather Stations

Winter Weather Advisory
Statement as of 3:26 PM CST on March 02, 2015

... Winter Weather Advisory remains in effect from 3 am to 6 PM
CST Tuesday...

* snow is expected to develop late tonight... then increase in
intensity Tuesday morning. The snow is expected to taper off
later in the afternoon.

* Snow accumulations of 3 to 4 inches are anticipated.

* Travel conditions may become hazardous due to snow covered roads
and reduced visibility. Travel will likely be impacted for the
morning commute... especially across central Wisconsin and the
Fox Valley.

Precautionary/preparedness actions...

A Winter Weather Advisory for snow means that periods of snow
will cause some travel difficulties. Be prepared for snow covered
roads and limited visibilities... and use caution while driving.
The latest Wisconsin Road conditions can be obtained by calling
511.